Fall River Mills, CA (96028)

10:42 AM PST on March 06, 2015 (GMT -0800)
McArthur-Burney Falls Memorial State Park | Change Station
CLOSE
Current Station
Personal Weather Station
Location: Burney, CA
Elevation: 3002 ft
Nearby Weather Stations

Elev 3002 ft 41.01 °N, 121.65 °W | Updated 11 minutes ago

Clear
Clear
47.2 °F
Feels Like 47 °F
N
0.0
Wind Variable Wind from WSW
Gusts 2.0 mph

Today
High -- | Low -- °F
--% Chance of Precip.
Yesterday
High -- | Low -- °F
Precip. -- in
6:32 AM 6:02 PM
Full, 99% visible
Pressure 30.43 in
Visibility 10.0 miles
Clouds Clear
Windchill 47 °F
Dew Point 30 °F
Humidity 52%
Rainfall in
Snow Depth Not available.
UV 4 out of 12
Pollen 8.40 out of 12
Air Quality Not available.
Flu Activity Not available.
METAR KMHS 061756Z AUTO 30005KT 10SM CLR 14/M02 A3037 RMK AO2 SLP302 T01391022 10144 21022 50000

More Conditions Fewer Conditions

Pressure 30.43 in
Visibility 10.0 miles
Clouds Clear
Windchill 47 °F
Dew Point 30 °F
Humidity 52%
Rainfall in
Snow Depth Not available.
UV 4 out of 12
Pollen 8.40 out of 12
Air Quality Not available.
Flu Activity Not available.
METAR KMHS 061756Z AUTO 30005KT 10SM CLR 14/M02 A3037 RMK AO2 SLP302 T01391022 10144 21022 50000

More Conditions Fewer Conditions

10-Day Weather Forecast

Almanac

Astronomy

Mar. 06, 2015 Rise Set
Actual Time
Civil Twilight
Nautical Twilight
Astronomical Twilight
Moon
Length of Visible Light
Length of Day
Tomorrow will be .
, % of the Moon is Illuminated

Today's Extremes

State Highs State Lows

Community

WunderPhotos

Upload Photos

1,803,367 photos uploaded!

WunderBlogs® & News

Nearby

Air Quality

  Air Quality AQ Index Pollutant
Not available.

Snow Depth

Station Depth Elevation

Earthquake Activity

City Distance Mag. Time & Date
Minimum magnitude displayed is 2.5.

Coastal Water Temperatures

Place Temperature

Nearby Weather Stations